Time;durP1;ratioP1;P1;durP2;ratioP2;P2;SDS_P1;SDS_P2;PMS_P1;PMS_P2;Temp;Humidity;BMP_temperature;BMP_pressure;BME280_temperature;BME280_humidity;BME280_pressure;Samples;Min_cycle;Max_cycle;Signal;HPM_P1;HPM_P2
2021/12/15 00:00:20;;;;;;;40.47;23.13;;;9.60;97.20;;;;;;2071463;28;20018;-93
2021/12/15 00:01:21;;;;;;;42.17;23.05;;;9.60;97.20;;;;;;2083430;28;20515;-93
2021/12/15 00:02:23;;;;;;;37.97;22.33;;;9.50;97.20;;;;;;2069125;28;20023;-94
2021/12/15 00:03:26;;;;;;;40.67;23.33;;;9.60;97.20;;;;;;2059965;28;20023;-83
2021/12/15 00:04:27;;;;;;;42.05;23.05;;;9.50;97.20;;;;;;2065728;28;20103;-94
2021/12/15 00:05:28;;;;;;;39.53;22.20;;;9.60;97.20;;;;;;2079057;28;20038;-93
2021/12/15 00:06:30;;;;;;;37.80;22.25;;;9.50;97.20;;;;;;2076262;28;20030;-93
2021/12/15 00:07:30;;;;;;;37.58;22.73;;;9.50;97.20;;;;;;2071972;28;20084;-94
2021/12/15 00:08:31;;;;;;;40.13;22.42;;;9.50;97.20;;;;;;2075576;28;20026;-94
2021/12/15 00:09:32;;;;;;;36.97;21.55;;;9.50;97.20;;;;;;2081609;28;20061;-94
2021/12/15 00:10:33;;;;;;;36.63;21.50;;;9.50;97.20;;;;;;2065332;28;20054;-94
2021/12/15 00:11:37;;;;;;;36.10;21.17;;;9.50;97.20;;;;;;2057319;28;20070;-94
2021/12/15 00:12:37;;;;;;;40.95;22.58;;;9.50;97.20;;;;;;2069363;28;20120;-94
2021/12/15 00:13:39;;;;;;;37.65;21.52;;;9.50;97.20;;;;;;2073277;28;20022;-94
2021/12/15 00:14:42;;;;;;;39.97;22.63;;;9.50;97.20;;;;;;2073839;28;20173;-95
2021/12/15 00:15:45;;;;;;;41.42;23.20;;;9.50;97.20;;;;;;2082459;28;20037;-94
2021/12/15 00:16:47;;;;;;;42.67;22.25;;;9.50;97.20;;;;;;2071257;28;20066;-94
2021/12/15 00:17:50;;;;;;;39.28;22.65;;;9.50;97.20;;;;;;2066221;28;20098;-94
2021/12/15 00:18:51;;;;;;;38.67;21.90;;;9.50;97.20;;;;;;2072720;28;20030;-94
2021/12/15 00:19:51;;;;;;;41.03;22.77;;;9.50;97.20;;;;;;2082260;28;20475;-94
2021/12/15 00:20:52;;;;;;;39.42;22.30;;;9.50;97.20;;;;;;2081485;28;20038;-94
2021/12/15 00:21:54;;;;;;;41.03;23.27;;;9.50;97.50;;;;;;2073392;28;20030;-93
2021/12/15 00:22:56;;;;;;;38.15;22.00;;;9.50;97.20;;;;;;2080754;28;20108;-94
2021/12/15 00:23:57;;;;;;;37.60;22.38;;;9.50;97.20;;;;;;2080938;28;21725;-93
2021/12/15 00:24:57;;;;;;;38.92;22.05;;;9.50;97.20;;;;;;2089702;28;20021;-93
2021/12/15 00:25:58;;;;;;;36.00;21.65;;;9.50;97.20;;;;;;2090452;28;20030;-94
2021/12/15 00:26:59;;;;;;;37.10;21.73;;;9.50;97.20;;;;;;2090423;28;20055;-87
2021/12/15 00:28:00;;;;;;;37.63;21.70;;;9.50;97.20;;;;;;2084677;28;20022;-88
2021/12/15 00:29:02;;;;;;;38.08;21.70;;;9.50;97.20;;;;;;2091619;28;20026;-80
2021/12/15 00:30:06;;;;;;;35.13;20.92;;;9.50;97.20;;;;;;2083414;28;20042;-92
2021/12/15 00:31:06;;;;;;;36.45;21.15;;;9.50;97.20;;;;;;2076254;28;20003;-87
2021/12/15 00:32:08;;;;;;;38.10;21.88;;;9.50;97.20;;;;;;2075458;28;20012;-93
2021/12/15 00:33:09;;;;;;;39.05;21.80;;;9.50;97.20;;;;;;2075740;28;20011;-89
2021/12/15 00:34:10;;;;;;;38.88;21.75;;;9.50;97.20;;;;;;2073725;28;20022;-94
2021/12/15 00:35:11;;;;;;;39.58;21.88;;;9.50;97.20;;;;;;2057867;28;20465;-94
2021/12/15 00:36:13;;;;;;;43.58;23.77;;;9.50;97.20;;;;;;2056804;28;20513;-93
2021/12/15 00:37:13;;;;;;;39.88;22.02;;;9.50;97.20;;;;;;2063083;28;20027;-93
2021/12/15 00:38:14;;;;;;;39.63;22.80;;;9.50;97.20;;;;;;2082012;28;20057;-93
2021/12/15 00:39:19;;;;;;;39.35;21.30;;;9.50;97.20;;;;;;2081472;28;20025;-93
2021/12/15 00:40:22;;;;;;;35.15;20.90;;;9.50;97.20;;;;;;2075241;28;20590;-92
2021/12/15 00:41:23;;;;;;;38.97;22.23;;;9.50;97.30;;;;;;2074551;28;20026;-93
2021/12/15 00:42:24;;;;;;;40.28;22.25;;;9.50;97.20;;;;;;2075267;28;20120;-92
2021/12/15 00:43:25;;;;;;;35.15;20.85;;;9.40;97.20;;;;;;2079230;28;20076;-93
2021/12/15 00:44:26;;;;;;;37.72;21.58;;;9.50;97.20;;;;;;2082711;28;20369;-93
2021/12/15 00:45:26;;;;;;;38.70;21.77;;;9.50;97.20;;;;;;2083379;28;20032;-93
2021/12/15 00:46:27;;;;;;;42.05;23.30;;;9.40;97.50;;;;;;2074656;28;20076;-93
2021/12/15 00:47:28;;;;;;;39.00;22.55;;;9.50;97.30;;;;;;2065541;28;20114;-93
2021/12/15 00:48:29;;;;;;;37.22;22.20;;;9.40;97.20;;;;;;2066912;28;20590;-94
2021/12/15 00:49:31;;;;;;;42.40;22.70;;;9.50;97.30;;;;;;2066388;28;20050;-93
2021/12/15 00:50:34;;;;;;;39.00;21.85;;;9.50;97.30;;;;;;2066825;28;20034;-93
2021/12/15 00:51:40;;;;;;;35.83;21.70;;;9.50;97.30;;;;;;2080490;28;20026;-93
2021/12/15 00:52:44;;;;;;;40.50;21.67;;;9.50;97.50;;;;;;2081824;28;20041;-92
2021/12/15 00:53:44;;;;;;;36.55;21.13;;;9.40;97.20;;;;;;2082802;28;20041;-93
2021/12/15 00:54:45;;;;;;;36.78;21.52;;;9.50;97.30;;;;;;2074714;28;20041;-93
2021/12/15 00:55:46;;;;;;;34.88;20.80;;;9.50;97.30;;;;;;2068902;28;20034;-93
2021/12/15 00:56:46;;;;;;;36.13;21.75;;;9.50;97.30;;;;;;2076582;28;20030;-93
2021/12/15 00:57:48;;;;;;;35.05;21.33;;;9.50;97.30;;;;;;2089203;28;20014;-93
2021/12/15 00:58:48;;;;;;;37.42;21.35;;;9.50;97.30;;;;;;2084858;28;20026;-94
2021/12/15 00:59:49;;;;;;;39.63;21.88;;;9.50;97.30;;;;;;2059769;28;20027;-93
2021/12/15 01:00:57;;;;;;;36.70;21.15;;;9.50;97.30;;;;;;2058472;28;20424;-91
2021/12/15 01:01:57;;;;;;;37.13;21.73;;;9.50;97.30;;;;;;2081544;28;20014;-84
2021/12/15 01:02:59;;;;;;;39.05;22.67;;;9.50;97.30;;;;;;2093408;28;20005;-84
2021/12/15 01:04:00;;;;;;;39.95;21.98;;;9.50;97.20;;;;;;2090066;28;20033;-88
2021/12/15 01:05:00;;;;;;;37.22;21.73;;;9.50;97.30;;;;;;2093239;28;20014;-85
2021/12/15 01:06:07;;;;;;;39.88;21.48;;;9.50;97.30;;;;;;2081586;28;20038;-94
2021/12/15 01:07:09;;;;;;;39.08;21.67;;;9.50;97.30;;;;;;2077093;28;20043;-93
2021/12/15 01:08:15;;;;;;;36.05;21.50;;;9.50;97.30;;;;;;2068946;28;20026;-93
2021/12/15 01:09:24;;;;;;;39.08;21.70;;;9.50;97.30;;;;;;2074163;28;20033;-93
2021/12/15 01:10:32;;;;;;;35.03;20.05;;;9.50;97.30;;;;;;2084910;28;20045;-92
2021/12/15 01:19:51;;;;;;;34.95;20.73;;;9.50;97.20;;;;;;2083395;28;20101;-93
2021/12/15 01:20:54;;;;;;;34.00;20.08;;;9.40;97.20;;;;;;2085682;28;20045;-93
2021/12/15 01:21:56;;;;;;;36.97;21.45;;;9.40;97.20;;;;;;2072709;28;20081;-93
2021/12/15 01:23:01;;;;;;;35.78;20.25;;;9.40;97.20;;;;;;2057745;28;20031;-93
2021/12/15 01:24:03;;;;;;;34.92;20.63;;;9.50;97.20;;;;;;2081793;28;20094;-94
2021/12/15 01:25:08;;;;;;;36.83;20.45;;;9.40;97.20;;;;;;2073474;28;20072;-93
2021/12/15 01:26:15;;;;;;;36.38;20.05;;;9.50;97.20;;;;;;2075599;28;20045;-93
2021/12/15 01:27:16;;;;;;;37.35;20.23;;;9.50;97.20;;;;;;2081677;28;20111;-93
2021/12/15 01:28:17;;;;;;;37.10;20.95;;;9.40;97.20;;;;;;2083759;28;20411;-94
2021/12/15 01:29:19;;;;;;;40.67;22.20;;;9.40;97.20;;;;;;2083233;28;20369;-94
2021/12/15 01:30:26;;;;;;;42.63;23.23;;;9.50;97.20;;;;;;2074232;28;20400;-93
2021/12/15 01:31:27;;;;;;;41.15;22.58;;;9.40;97.20;;;;;;2082940;28;20025;-93
2021/12/15 01:32:28;;;;;;;42.58;23.33;;;9.40;97.20;;;;;;2078955;28;20057;-93
2021/12/15 01:33:29;;;;;;;41.22;22.40;;;9.40;97.20;;;;;;2074348;28;20118;-93
2021/12/15 01:34:30;;;;;;;38.30;22.08;;;9.40;97.20;;;;;;2074531;28;20030;-92
2021/12/15 01:35:31;;;;;;;37.50;22.33;;;9.40;97.20;;;;;;2066324;28;20500;-93
2021/12/15 01:36:33;;;;;;;43.72;24.13;;;9.50;97.30;;;;;;2065722;28;20062;-92
2021/12/15 01:37:34;;;;;;;43.92;23.15;;;9.50;97.20;;;;;;2074887;28;20500;-93
2021/12/15 01:38:38;;;;;;;43.08;23.38;;;9.50;97.20;;;;;;2075201;28;20026;-92
2021/12/15 01:39:40;;;;;;;41.72;23.38;;;9.50;97.20;;;;;;2074633;28;20040;-93
2021/12/15 01:40:44;;;;;;;40.47;23.48;;;9.50;97.20;;;;;;2070023;28;20041;-93
2021/12/15 01:41:45;;;;;;;39.88;22.45;;;9.50;97.20;;;;;;2068301;28;20101;-92
2021/12/15 01:42:46;;;;;;;39.95;22.48;;;9.50;97.20;;;;;;2066519;28;20498;-92
2021/12/15 01:47:30;;;;;;;36.15;21.25;;;9.50;97.20;;;;;;2079104;28;20546;-93
2021/12/15 01:48:31;;;;;;;37.45;20.73;;;9.50;97.20;;;;;;2069648;28;20034;-93
2021/12/15 01:49:45;;;;;;;38.15;20.73;;;9.50;97.20;;;;;;2074643;28;20034;-93
2021/12/15 01:50:46;;;;;;;37.10;21.65;;;9.50;97.20;;;;;;2075070;28;20030;-92
2021/12/15 01:51:47;;;;;;;41.30;22.55;;;9.50;97.20;;;;;;2072843;28;20113;-92
2021/12/15 01:52:47;;;;;;;38.33;21.85;;;9.50;97.20;;;;;;2054158;28;20122;-93
2021/12/15 01:53:48;;;;;;;39.58;22.02;;;9.50;97.20;;;;;;2066208;28;20030;-93
2021/12/15 01:54:54;;;;;;;39.90;22.02;;;9.50;97.20;;;;;;2083410;28;20100;-92
2021/12/15 01:55:56;;;;;;;37.28;21.73;;;9.50;97.20;;;;;;2090901;28;20028;-92
2021/12/15 01:56:58;;;;;;;42.42;22.00;;;9.50;97.20;;;;;;2086443;28;20013;-92
2021/12/15 01:57:59;;;;;;;40.83;22.33;;;9.50;97.20;;;;;;2071593;28;20416;-93
2021/12/15 01:59:00;;;;;;;45.28;23.80;;;9.50;97.20;;;;;;2066969;28;20553;-93
2021/12/15 02:00:07;;;;;;;42.97;22.90;;;9.50;97.20;;;;;;2066463;28;20034;-94
2021/12/15 02:01:09;;;;;;;41.08;23.17;;;9.50;97.20;;;;;;2073022;28;20085;-92
2021/12/15 02:02:09;;;;;;;44.53;24.02;;;9.50;97.20;;;;;;2082673;28;20036;-91
2021/12/15 02:03:10;;;;;;;40.58;22.75;;;9.50;97.20;;;;;;2073316;28;20033;-93
2021/12/15 02:04:11;;;;;;;42.53;23.75;;;9.50;97.20;;;;;;2055656;28;20030;-92
2021/12/15 02:05:12;;;;;;;43.63;23.23;;;9.50;97.20;;;;;;2060235;28;20023;-90
2021/12/15 02:06:14;;;;;;;50.40;25.35;;;9.50;97.20;;;;;;2075622;28;20038;-93
2021/12/15 02:07:17;;;;;;;47.60;26.20;;;9.50;97.20;;;;;;2083044;28;20498;-87
2021/12/15 02:08:19;;;;;;;46.20;24.75;;;9.50;97.20;;;;;;2084550;28;20025;-79
2021/12/15 02:09:41;;;;;;;46.22;25.23;;;9.50;97.20;;;;;;2073806;28;20023;-85
2021/12/15 02:10:44;;;;;;;43.35;24.00;;;9.50;97.20;;;;;;2079436;28;20025;-83
2021/12/15 02:11:45;;;;;;;45.85;24.48;;;9.50;97.20;;;;;;2088709;28;20021;-84
2021/12/15 02:12:46;;;;;;;42.75;24.25;;;9.50;97.20;;;;;;2092488;28;20041;-85
2021/12/15 02:13:46;;;;;;;44.90;23.38;;;9.50;97.20;;;;;;2084446;28;20006;-84
2021/12/15 02:14:48;;;;;;;43.17;23.70;;;9.50;97.20;;;;;;2090110;28;20017;-91
2021/12/15 02:15:52;;;;;;;43.08;23.88;;;9.50;97.20;;;;;;2075548;28;20101;-92
2021/12/15 02:16:53;;;;;;;46.60;24.75;;;9.50;97.20;;;;;;2085123;28;20014;-87
2021/12/15 02:17:54;;;;;;;43.40;23.20;;;9.50;97.20;;;;;;2092744;28;20134;-93
2021/12/15 02:18:54;;;;;;;43.90;24.15;;;9.50;97.20;;;;;;2087494;28;20037;-92
2021/12/15 02:19:55;;;;;;;47.35;24.65;;;9.50;97.20;;;;;;2082155;28;20444;-93
2021/12/15 02:21:06;;;;;;;41.83;23.27;;;9.50;97.20;;;;;;2075013;28;20528;-93
2021/12/15 02:22:07;;;;;;;40.53;22.95;;;9.50;97.20;;;;;;2078927;28;20010;-93
2021/12/15 02:23:12;;;;;;;46.45;24.27;;;9.50;97.20;;;;;;2084191;28;20082;-93
2021/12/15 02:24:12;;;;;;;46.22;24.90;;;9.50;97.20;;;;;;2076819;28;20010;-93
2021/12/15 02:25:15;;;;;;;48.25;24.67;;;9.50;97.20;;;;;;2069886;28;20444;-93
2021/12/15 02:26:21;;;;;;;44.15;24.77;;;9.50;97.20;;;;;;2058349;28;20046;-93
2021/12/15 02:27:22;;;;;;;43.15;23.88;;;9.50;97.20;;;;;;2067787;28;20027;-93
2021/12/15 02:28:23;;;;;;;43.90;24.05;;;9.50;97.20;;;;;;2067309;28;20026;-93
2021/12/15 02:29:24;;;;;;;42.72;23.75;;;9.50;97.20;;;;;;2073568;28;20532;-94
2021/12/15 02:30:42;;;;;;;44.30;23.80;;;9.50;97.20;;;;;;2064802;28;20026;-93
2021/12/15 02:38:29;;;;;;;38.85;21.92;;;9.50;97.20;;;;;;2057882;28;20038;-94
2021/12/15 02:39:31;;;;;;;40.05;21.48;;;9.50;97.20;;;;;;2055971;28;20085;-93
2021/12/15 02:40:32;;;;;;;39.00;21.65;;;9.50;97.20;;;;;;2057014;28;20062;-93
2021/12/15 02:41:34;;;;;;;44.85;23.70;;;9.50;97.20;;;;;;2065613;28;20030;-93
2021/12/15 02:42:38;;;;;;;42.88;23.02;;;9.50;97.20;;;;;;2057768;28;20027;-93
2021/12/15 02:43:40;;;;;;;43.47;23.65;;;9.50;97.20;;;;;;2059813;28;20030;-94
2021/12/15 02:44:43;;;;;;;42.53;23.70;;;9.50;97.20;;;;;;2061704;28;20031;-93
2021/12/15 02:45:43;;;;;;;41.50;23.23;;;9.50;97.20;;;;;;2065429;28;20030;-93
2021/12/15 02:46:46;;;;;;;43.92;24.55;;;9.50;97.20;;;;;;2062709;28;20030;-93
2021/12/15 02:47:48;;;;;;;42.58;23.63;;;9.50;97.50;;;;;;2058322;28;20097;-93
2021/12/15 02:48:50;;;;;;;40.13;23.67;;;9.50;97.20;;;;;;2066490;28;20033;-94
2021/12/15 02:49:54;;;;;;;45.15;24.33;;;9.50;97.20;;;;;;2074925;28;20025;-94
2021/12/15 02:50:57;;;;;;;45.40;23.77;;;9.50;97.20;;;;;;2076788;28;20030;-93
2021/12/15 02:52:00;;;;;;;45.42;24.38;;;9.50;97.20;;;;;;2074860;28;20030;-93
2021/12/15 02:53:02;;;;;;;47.47;24.90;;;9.50;97.20;;;;;;2082344;28;20029;-93
2021/12/15 02:54:03;;;;;;;43.20;24.38;;;9.50;97.20;;;;;;2073806;28;20022;-93
2021/12/15 02:55:06;;;;;;;43.42;22.95;;;9.50;97.20;;;;;;2073618;28;20268;-93
2021/12/15 02:56:07;;;;;;;43.53;24.00;;;9.50;97.20;;;;;;2073819;28;20040;-93
2021/12/15 02:57:12;;;;;;;43.45;23.73;;;9.50;97.20;;;;;;2066183;28;20046;-93
2021/12/15 02:58:13;;;;;;;40.83;22.67;;;9.50;97.20;;;;;;2074204;28;20030;-93
2021/12/15 02:59:15;;;;;;;48.25;25.30;;;9.50;97.20;;;;;;2075501;28;20026;-93
2021/12/15 03:00:24;;;;;;;46.05;25.17;;;9.50;97.40;;;;;;2057117;28;20031;-93
2021/12/15 03:03:15;;;;;;;43.10;22.83;;;9.50;97.20;;;;;;2079034;28;20491;-92
2021/12/15 03:04:28;;;;;;;41.97;22.98;;;9.50;97.20;;;;;;2082427;28;20472;-93
2021/12/15 03:05:35;;;;;;;40.35;22.40;;;9.50;97.20;;;;;;2072745;28;20077;-93
2021/12/15 03:06:54;;;;;;;39.90;22.38;;;9.50;97.20;;;;;;2069635;28;20053;-93
2021/12/15 03:15:44;;;;;;;39.53;21.30;;;9.50;97.20;;;;;;2073753;28;20096;-94
2021/12/15 03:16:45;;;;;;;40.05;21.08;;;9.50;97.10;;;;;;2082259;28;20538;-93
2021/12/15 03:17:54;;;;;;;38.63;21.05;;;9.40;97.10;;;;;;2082383;28;20483;-93
2021/12/15 03:18:58;;;;;;;45.67;23.00;;;9.40;97.10;;;;;;2081025;28;20032;-93
2021/12/15 03:19:58;;;;;;;39.58;22.02;;;9.40;97.10;;;;;;2074139;28;20026;-94
2021/12/15 03:21:08;;;;;;;41.40;22.55;;;9.40;97.10;;;;;;2073483;28;20061;-93
2021/12/15 03:22:09;;;;;;;43.10;23.33;;;9.40;97.10;;;;;;2074849;28;20030;-93
2021/12/15 03:23:11;;;;;;;41.55;22.85;;;9.40;97.40;;;;;;2073670;28;20030;-94
2021/12/15 03:24:18;;;;;;;41.25;23.05;;;9.40;97.10;;;;;;2065873;28;20034;-94
2021/12/15 03:25:19;;;;;;;43.92;23.38;;;9.40;97.20;;;;;;2077607;28;20021;-94
2021/12/15 03:26:27;;;;;;;41.80;22.40;;;9.40;97.20;;;;;;2073650;28;20022;-93
2021/12/15 03:33:17;;;;;;;48.15;24.02;;;9.40;97.20;;;;;;2067594;28;20165;-93
2021/12/15 03:36:23;;;;;;;43.00;22.00;;;9.40;97.20;;;;;;2078292;28;20031;-93
2021/12/15 03:37:25;;;;;;;39.58;21.00;;;9.40;97.20;;;;;;2075344;28;20472;-93
2021/12/15 03:38:28;;;;;;;40.10;22.23;;;9.40;97.20;;;;;;2073872;28;20088;-93
2021/12/15 03:39:38;;;;;;;41.97;23.10;;;9.40;97.20;;;;;;2081891;28;20043;-94
2021/12/15 03:40:41;;;;;;;43.75;23.17;;;9.40;97.20;;;;;;2081336;28;20057;-93
2021/12/15 03:41:43;;;;;;;39.00;21.20;;;9.40;97.20;;;;;;2066240;28;20033;-95
2021/12/15 03:42:51;;;;;;;43.97;22.73;;;9.40;97.20;;;;;;2060437;28;20464;-93
2021/12/15 03:43:52;;;;;;;43.97;22.88;;;9.40;97.20;;;;;;2074507;28;20113;-94
2021/12/15 03:44:53;;;;;;;43.63;22.77;;;9.40;97.40;;;;;;2065447;28;20027;-92
2021/12/15 03:45:59;;;;;;;46.83;24.33;;;9.40;97.20;;;;;;2072202;28;20073;-93
2021/12/15 03:47:02;;;;;;;42.40;21.95;;;9.40;97.20;;;;;;2082000;28;20025;-93
2021/12/15 03:48:09;;;;;;;42.03;23.38;;;9.40;97.20;;;;;;2073417;28;20022;-93
2021/12/15 03:49:10;;;;;;;37.10;20.77;;;9.40;97.20;;;;;;2073866;28;20022;-93
2021/12/15 03:50:14;;;;;;;40.15;21.75;;;9.40;97.20;;;;;;2065854;28;20481;-93
2021/12/15 03:51:15;;;;;;;37.70;20.88;;;9.40;97.20;;;;;;2072017;28;20095;-92
2021/12/15 03:52:16;;;;;;;38.50;21.90;;;9.40;97.20;;;;;;2073213;28;20030;-92
2021/12/15 03:53:18;;;;;;;42.10;21.60;;;9.50;97.20;;;;;;2072250;28;20045;-92
2021/12/15 03:54:19;;;;;;;40.90;22.45;;;9.40;97.20;;;;;;2080741;28;20049;-92
2021/12/15 03:55:29;;;;;;;39.72;21.27;;;9.40;97.20;;;;;;2083136;28;20013;-91
2021/12/15 03:56:29;;;;;;;38.15;21.33;;;9.50;97.20;;;;;;2085675;28;20017;-90
2021/12/15 03:57:30;;;;;;;40.78;21.50;;;9.50;97.20;;;;;;2083926;28;20037;-82
2021/12/15 03:58:31;;;;;;;45.72;22.77;;;9.40;97.20;;;;;;2083560;28;20077;-84
2021/12/15 03:59:34;;;;;;;43.30;22.73;;;9.50;97.20;;;;;;2090363;28;20010;-93
2021/12/15 04:00:38;;;;;;;40.58;21.48;;;9.50;97.20;;;;;;2091077;28;20048;-93
2021/12/15 04:01:39;;;;;;;41.80;22.30;;;9.50;97.20;;;;;;2083549;28;20030;-92
2021/12/15 04:02:41;;;;;;;40.58;21.65;;;9.40;97.20;;;;;;2075626;28;20026;-93
2021/12/15 04:03:47;;;;;;;41.40;22.27;;;9.50;97.20;;;;;;2074143;28;20034;-93
2021/12/15 04:04:49;;;;;;;39.38;20.80;;;9.50;97.20;;;;;;2081288;28;20531;-93
2021/12/15 04:05:50;;;;;;;36.05;19.48;;;9.50;97.20;;;;;;2064642;28;20042;-92
2021/12/15 04:06:51;;;;;;;40.78;21.60;;;9.50;97.20;;;;;;2057810;28;20031;-92
2021/12/15 04:07:53;;;;;;;40.35;20.88;;;9.50;97.20;;;;;;2049599;28;20115;-92
2021/12/15 04:08:55;;;;;;;41.85;21.33;;;9.50;97.20;;;;;;2058187;28;20027;-92
2021/12/15 04:09:57;;;;;;;37.78;19.90;;;9.50;97.20;;;;;;2074940;28;20022;-92
2021/12/15 04:10:59;;;;;;;38.20;20.73;;;9.40;97.20;;;;;;2065695;28;20031;-92
2021/12/15 04:12:00;;;;;;;41.25;21.25;;;9.50;97.20;;;;;;2067804;28;20026;-91
2021/12/15 04:13:02;;;;;;;43.63;21.92;;;9.50;97.20;;;;;;2074067;28;20562;-93
2021/12/15 04:14:08;;;;;;;42.33;22.17;;;9.50;97.20;;;;;;2059403;28;20046;-93
2021/12/15 04:15:29;;;;;;;41.75;21.92;;;9.50;97.20;;;;;;2070472;28;20045;-93
2021/12/15 04:17:32;;;;;;;37.85;20.88;;;9.50;97.20;;;;;;2092214;28;20037;-93
2021/12/15 04:18:36;;;;;;;41.78;21.67;;;9.50;97.20;;;;;;2091909;28;20502;-93
2021/12/15 04:19:36;;;;;;;40.58;21.20;;;9.50;97.20;;;;;;2082693;28;20037;-93
2021/12/15 04:20:39;;;;;;;38.05;20.67;;;9.50;97.20;;;;;;2058189;28;20089;-92
2021/12/15 04:21:40;;;;;;;40.88;20.85;;;9.50;97.20;;;;;;2067441;28;20039;-93
2021/12/15 04:22:41;;;;;;;37.85;21.38;;;9.50;97.20;;;;;;2074013;28;20085;-93
2021/12/15 04:23:48;;;;;;;39.28;20.88;;;9.50;97.20;;;;;;2074883;28;20030;-93
2021/12/15 04:24:50;;;;;;;40.63;21.88;;;9.50;97.20;;;;;;2076742;28;20022;-93
2021/12/15 04:25:58;;;;;;;38.97;20.10;;;9.50;97.20;;;;;;2075106;28;20040;-93
2021/12/15 04:26:59;;;;;;;35.35;19.67;;;9.50;97.20;;;;;;2083907;28;20022;-92
2021/12/15 04:28:07;;;;;;;38.97;20.30;;;9.50;97.20;;;;;;2075475;28;20113;-93
2021/12/15 04:29:07;;;;;;;37.05;19.73;;;9.50;97.20;;;;;;2077394;28;20068;-92
2021/12/15 04:30:09;;;;;;;38.75;19.92;;;9.50;97.20;;;;;;2083049;28;20075;-93
2021/12/15 04:31:14;;;;;;;39.15;20.77;;;9.50;97.20;;;;;;2084719;28;20072;-94
2021/12/15 04:32:30;;;;;;;36.00;20.08;;;9.50;97.20;;;;;;2085044;28;20024;-93
2021/12/15 04:33:54;;;;;;;38.08;20.65;;;9.50;97.20;;;;;;2084839;28;20116;-93
2021/12/15 04:34:55;;;;;;;35.10;19.35;;;9.50;97.20;;;;;;2084710;28;20021;-93
2021/12/15 04:35:57;;;;;;;36.25;19.05;;;9.50;97.20;;;;;;2084850;28;20474;-93
2021/12/15 04:36:58;;;;;;;43.30;20.67;;;9.50;97.20;;;;;;2084314;28;20029;-93
2021/12/15 04:37:59;;;;;;;38.17;20.13;;;9.50;97.20;;;;;;2074599;28;20022;-93
2021/12/15 04:39:00;;;;;;;35.50;19.33;;;9.50;97.20;;;;;;2086475;28;20052;-93
2021/12/15 04:40:03;;;;;;;38.10;20.50;;;9.50;97.20;;;;;;2092536;28;20036;-94
2021/12/15 04:41:09;;;;;;;40.28;20.85;;;9.50;97.50;;;;;;2092744;28;20025;-92
2021/12/15 04:42:11;;;;;;;39.53;20.75;;;9.50;97.20;;;;;;2085590;28;20022;-94
2021/12/15 04:43:12;;;;;;;35.42;19.90;;;9.50;97.20;;;;;;2092616;28;20006;-92
2021/12/15 04:44:13;;;;;;;35.95;19.52;;;9.50;97.20;;;;;;2085309;28;20034;-84
2021/12/15 04:45:16;;;;;;;35.63;19.13;;;9.50;97.20;;;;;;2091925;28;20022;-85
2021/12/15 04:46:17;;;;;;;38.05;20.90;;;9.50;97.20;;;;;;2090495;28;20032;-91
2021/12/15 04:47:18;;;;;;;42.50;20.42;;;9.50;97.20;;;;;;2076804;28;20451;-93
2021/12/15 04:48:18;;;;;;;41.00;21.08;;;9.50;97.20;;;;;;2059134;28;20027;-93
2021/12/15 04:49:19;;;;;;;39.95;20.88;;;9.50;97.20;;;;;;2067444;28;20054;-94
2021/12/15 04:50:23;;;;;;;37.30;19.98;;;9.50;97.20;;;;;;2074611;28;20030;-92
2021/12/15 04:51:25;;;;;;;37.60;20.40;;;9.50;97.20;;;;;;2067571;28;20072;-93
2021/12/15 04:52:28;;;;;;;35.22;18.95;;;9.50;97.20;;;;;;2075169;28;20053;-93
2021/12/15 04:53:29;;;;;;;38.42;20.50;;;9.50;97.20;;;;;;2083101;28;20380;-92
2021/12/15 04:54:30;;;;;;;36.78;19.20;;;9.50;97.20;;;;;;2082536;28;20068;-93
2021/12/15 04:55:33;;;;;;;41.75;21.58;;;9.50;97.20;;;;;;2082682;28;20028;-92
2021/12/15 04:56:34;;;;;;;39.47;21.20;;;9.50;97.20;;;;;;2081438;28;20080;-93
2021/12/15 04:57:35;;;;;;;41.80;20.98;;;9.50;97.20;;;;;;2083624;28;20029;-93
2021/12/15 04:58:36;;;;;;;39.95;20.73;;;9.50;97.20;;;;;;2083645;28;20030;-93
2021/12/15 04:59:38;;;;;;;40.35;20.38;;;9.50;97.20;;;;;;2083636;28;20041;-94
2021/12/15 05:00:44;;;;;;;39.42;20.50;;;9.50;97.20;;;;;;2075283;28;20037;-93
2021/12/15 05:01:46;;;;;;;38.10;20.33;;;9.50;97.20;;;;;;2076525;28;20057;-92
2021/12/15 05:02:47;;;;;;;38.17;20.63;;;9.50;97.20;;;;;;2075448;28;20080;-93
2021/12/15 05:03:48;;;;;;;36.80;19.90;;;9.50;97.20;;;;;;2067233;28;20030;-93
2021/12/15 05:04:50;;;;;;;37.55;19.98;;;9.50;97.20;;;;;;2075309;28;20101;-93
2021/12/15 05:05:51;;;;;;;35.78;20.17;;;9.50;97.20;;;;;;2074696;28;20037;-92
2021/12/15 05:06:52;;;;;;;38.28;20.33;;;9.50;97.20;;;;;;2082259;28;20026;-92
2021/12/15 05:07:54;;;;;;;37.28;20.55;;;9.50;97.20;;;;;;2083517;28;20029;-92
2021/12/15 05:08:55;;;;;;;40.88;21.40;;;9.50;97.20;;;;;;2077074;28;20122;-93
2021/12/15 05:09:56;;;;;;;39.22;20.63;;;9.50;97.20;;;;;;2081322;28;20088;-93
2021/12/15 05:10:59;;;;;;;37.45;20.77;;;9.50;97.20;;;;;;2082349;28;20026;-92
2021/12/15 05:11:59;;;;;;;37.90;19.45;;;9.50;97.20;;;;;;2073942;28;20033;-93
2021/12/15 05:13:01;;;;;;;36.10;19.48;;;9.60;97.20;;;;;;2083188;28;20048;-95
2021/12/15 05:14:03;;;;;;;37.55;19.52;;;9.60;97.20;;;;;;2083592;28;20089;-93
2021/12/15 05:15:06;;;;;;;41.35;21.23;;;9.60;97.20;;;;;;2083067;28;20426;-93
2021/12/15 05:16:07;;;;;;;39.08;20.65;;;9.50;97.10;;;;;;2093186;28;20595;-93
2021/12/15 05:17:08;;;;;;;38.97;20.52;;;9.50;97.10;;;;;;2090568;28;20031;-93
2021/12/15 05:18:09;;;;;;;40.42;21.27;;;9.50;97.10;;;;;;2092241;28;20021;-93
2021/12/15 05:19:10;;;;;;;36.75;20.45;;;9.50;97.10;;;;;;2089015;28;20037;-93
2021/12/15 05:20:13;;;;;;;40.35;21.35;;;9.50;97.20;;;;;;2092533;28;20020;-92
2021/12/15 05:21:14;;;;;;;41.05;20.95;;;9.50;97.10;;;;;;2087723;28;20063;-93
2021/12/15 05:22:16;;;;;;;37.67;19.88;;;9.50;97.20;;;;;;2084160;28;20068;-93
2021/12/15 05:23:18;;;;;;;41.47;21.30;;;9.50;97.20;;;;;;2076753;28;20030;-92
2021/12/15 05:24:38;;;;;;;40.33;20.98;;;9.50;97.10;;;;;;2078948;28;20022;-92
2021/12/15 05:25:38;;;;;;;35.75;19.38;;;9.60;97.20;;;;;;2068680;28;20034;-94
2021/12/15 05:26:40;;;;;;;36.75;19.55;;;9.60;97.20;;;;;;2068332;28;20061;-92
2021/12/15 05:27:42;;;;;;;36.97;19.60;;;9.50;97.10;;;;;;2062406;28;20030;-92
2021/12/15 05:28:42;;;;;;;37.70;20.40;;;9.50;97.10;;;;;;2075096;28;20026;-94
2021/12/15 05:29:46;;;;;;;38.75;19.65;;;9.50;97.10;;;;;;2082621;28;20026;-89
2021/12/15 05:30:47;;;;;;;36.75;20.00;;;9.60;97.20;;;;;;2079189;28;20026;-93
2021/12/15 05:31:48;;;;;;;36.83;19.70;;;9.60;97.20;;;;;;2082991;28;20044;-94
2021/12/15 05:32:49;;;;;;;37.40;20.20;;;9.60;97.20;;;;;;2081067;28;20044;-92
2021/12/15 05:33:50;;;;;;;36.90;19.88;;;9.60;97.20;;;;;;2088311;28;20053;-93
2021/12/15 05:34:54;;;;;;;40.40;21.08;;;9.60;97.20;;;;;;2089823;28;20095;-93
2021/12/15 05:35:56;;;;;;;36.65;19.90;;;9.60;97.20;;;;;;2091352;28;20112;-92
2021/12/15 05:36:57;;;;;;;39.20;20.58;;;9.60;97.10;;;;;;2074451;28;20027;-92
2021/12/15 05:37:59;;;;;;;38.38;21.02;;;9.60;97.10;;;;;;2066801;28;20027;-92
2021/12/15 05:39:00;;;;;;;38.13;21.10;;;9.60;97.10;;;;;;2052976;28;20004;-80
2021/12/15 05:40:00;;;;;;;41.92;21.73;;;9.60;97.10;;;;;;2044899;28;20024;-91
2021/12/15 05:41:01;;;;;;;39.15;19.63;;;9.60;97.10;;;;;;2068390;28;20077;-81
2021/12/15 05:42:02;;;;;;;38.75;21.05;;;9.60;97.10;;;;;;2073814;28;20628;-85
2021/12/15 05:43:05;;;;;;;40.08;20.80;;;9.60;97.10;;;;;;2088093;28;20029;-92
2021/12/15 05:44:06;;;;;;;36.97;20.13;;;9.60;97.10;;;;;;2081615;28;20078;-90
2021/12/15 05:45:08;;;;;;;35.35;20.30;;;9.60;97.10;;;;;;2078348;28;20021;-92
2021/12/15 05:46:09;;;;;;;37.80;20.17;;;9.60;97.40;;;;;;2075589;28;20041;-95
2021/12/15 05:47:10;;;;;;;37.13;19.73;;;9.60;97.10;;;;;;2060186;28;20034;-93
2021/12/15 05:48:13;;;;;;;38.10;20.70;;;9.60;97.10;;;;;;2075011;28;20065;-94
2021/12/15 05:49:14;;;;;;;37.92;20.45;;;9.60;97.10;;;;;;2081024;28;20518;-93
2021/12/15 05:50:15;;;;;;;37.22;20.15;;;9.60;97.10;;;;;;2069142;28;20023;-93
2021/12/15 05:51:16;;;;;;;36.70;19.83;;;9.60;97.10;;;;;;2066247;28;20031;-93
2021/12/15 05:52:17;;;;;;;36.17;19.88;;;9.60;97.10;;;;;;2074410;28;20030;-91
2021/12/15 05:53:18;;;;;;;39.22;20.88;;;9.60;97.10;;;;;;2065820;28;20030;-93
2021/12/15 05:54:19;;;;;;;39.63;20.38;;;9.60;97.10;;;;;;2073979;28;20149;-93
2021/12/15 05:55:21;;;;;;;35.85;19.98;;;9.60;97.10;;;;;;2071891;28;20834;-92
2021/12/15 05:56:21;;;;;;;38.30;20.40;;;9.60;97.10;;;;;;2059895;28;20034;-93
2021/12/15 05:57:22;;;;;;;39.15;20.92;;;9.60;97.10;;;;;;2066476;28;20535;-93
2021/12/15 05:58:23;;;;;;;40.45;20.92;;;9.60;97.10;;;;;;2080396;28;20009;-91